首页
METAR-TAF:

METAR-TAF

机场 :

易卜拉欣·納西爾國際機場

馬累, 马尔代夫

纬度: 04-12N, 经度: 073-32E, 海拔: 2米

当前天气观测

该预报发布于31分钟前的15:00 UTC
风速12节,风向西南
温度 29°C
湿度 79%
气压 1010 hPa
能见度10公里或以上
少量云层高于1800英尺, 塔状积云.
多云层高于27000英尺

METAR: VRMM 161500Z 23012KT 9999 FEW018TCU BKN270 29/25 Q1010 NOSIG

时间: 20:31 (15:31 UTC)

预报

该预报发布于4小时和31分钟前的11:00 UTC
预报有效从16日的 12点(UTC)到 17日的 18点(UTC)
风速15节,风向西南
能见度10公里或以上
少量云层高于1800英尺
短暂存在
从 16日的 12点(UTC)到 16日的 18点(UTC)
风速18节,风向西转西南,有时为30节阵风
能見度: 5000
少量云层高于1700英尺, 积雨云.
小阵雨

TAF: VRMM 161100Z 1612/1718 23015KT 9999 FEW018 TEMPO 1612/1618 25018G30KT 5000 -SHRA FEW017CB

超过4000个机场的气象观测和天气预报(METAR&TAF报告)。

可查询的气象台以黄色和红色小点在地图上表示。

将鼠标移到小点上方,可查看气象台名称。

然后点击查看天气观测和预报。

如需切换地图:点击带黑十字的绿色按钮放大地图;点击带横线的绿色按钮缩小地图;或者点击绿色箭头查看邻近地区的地图。


METAR-TAF: